createdAt,value
2022-09-13T00:02:20.868Z,100.00
2022-09-13T00:05:32.341Z,100.00
2022-09-13T00:08:43.000Z,100.00
2022-09-13T00:11:53.234Z,99.63
2022-09-13T00:15:05.365Z,98.79
2022-09-13T00:18:16.450Z,98.70
2022-09-13T00:21:27.945Z,97.98
2022-09-13T00:24:38.317Z,97.47
2022-09-13T00:27:48.461Z,96.93
2022-09-13T00:31:02.285Z,96.82
2022-09-13T00:34:12.776Z,98.66
2022-09-13T00:37:23.083Z,100.00
2022-09-13T00:40:38.448Z,100.00
2022-09-13T00:43:51.333Z,100.00
2022-09-13T00:47:02.859Z,100.00
2022-09-13T00:50:20.058Z,100.00
2022-09-13T00:53:34.591Z,100.00
2022-09-13T00:56:49.495Z,100.00
2022-09-13T01:00:07.487Z,100.00
2022-09-13T01:03:22.885Z,100.00
2022-09-13T01:06:37.321Z,100.00
2022-09-13T01:09:52.316Z,100.00
2022-09-13T01:13:13.030Z,100.00
2022-09-13T01:16:24.537Z,100.00
2022-09-13T01:19:36.463Z,100.00
2022-09-13T01:23:20.679Z,100.00
2022-09-13T01:26:53.986Z,100.00
2022-09-13T01:30:14.464Z,100.00
2022-09-13T01:33:38.943Z,100.00
2022-09-13T01:37:21.392Z,100.00
2022-09-13T01:40:45.051Z,100.00
2022-09-13T01:44:06.118Z,100.00
2022-09-13T01:47:26.684Z,100.00
2022-09-13T01:50:43.572Z,100.00
2022-09-13T01:54:08.134Z,100.00
2022-09-13T01:57:24.830Z,100.00
2022-09-13T02:00:41.423Z,100.00
2022-09-13T02:03:57.635Z,100.00
2022-09-13T02:07:13.407Z,100.00
2022-09-13T02:10:27.812Z,100.00
2022-09-13T02:13:43.704Z,100.00
2022-09-13T02:16:59.997Z,100.00
2022-09-13T02:20:17.483Z,100.00
2022-09-13T02:23:33.468Z,100.00
2022-09-13T02:26:46.718Z,100.00
2022-09-13T02:29:59.601Z,100.00
2022-09-13T02:33:16.218Z,100.00
2022-09-13T02:36:32.346Z,100.00
2022-09-13T02:39:47.438Z,100.00
2022-09-13T02:43:03.081Z,100.00
2022-09-13T02:46:23.589Z,100.00
2022-09-13T02:49:45.884Z,100.00
2022-09-13T02:53:05.373Z,100.00
2022-09-13T02:56:25.107Z,100.00
2022-09-13T02:59:36.746Z,100.00
2022-09-13T03:02:50.149Z,100.00
2022-09-13T03:06:01.996Z,100.00
2022-09-13T03:09:14.166Z,100.00
2022-09-13T03:12:45.043Z,100.00
2022-09-13T03:16:06.580Z,100.00
2022-09-13T03:19:40.811Z,100.00
2022-09-13T03:23:08.162Z,100.00
2022-09-13T03:26:39.553Z,100.00
2022-09-13T03:29:57.699Z,100.00
2022-09-13T03:33:15.683Z,100.00
2022-09-13T03:36:34.579Z,100.00
2022-09-13T03:39:52.589Z,100.00
2022-09-13T03:43:09.545Z,100.00
2022-09-13T03:46:25.843Z,100.00
2022-09-13T03:49:39.855Z,100.00
2022-09-13T03:52:56.387Z,100.00
2022-09-13T03:56:13.705Z,100.00
2022-09-13T03:59:26.035Z,100.00
2022-09-13T04:02:36.889Z,100.00
2022-09-13T04:05:47.243Z,100.00
2022-09-13T04:08:57.662Z,100.00
2022-09-13T04:12:08.288Z,100.00
2022-09-13T04:15:19.862Z,100.00
2022-09-13T04:18:30.503Z,100.00
2022-09-13T04:21:41.040Z,100.00
2022-09-13T04:24:52.865Z,100.00
2022-09-13T04:28:03.624Z,100.00
2022-09-13T04:31:15.341Z,100.00
2022-09-13T04:34:25.768Z,100.00
2022-09-13T04:37:35.716Z,100.00
2022-09-13T04:40:45.690Z,100.00
2022-09-13T04:43:56.231Z,100.00
2022-09-13T04:47:09.503Z,100.00
2022-09-13T04:50:20.670Z,100.00
2022-09-13T04:53:31.244Z,100.00
2022-09-13T04:56:41.832Z,100.00
2022-09-13T04:59:52.447Z,100.00
2022-09-13T05:03:03.942Z,100.00
2022-09-13T05:06:17.871Z,100.00
2022-09-13T05:09:28.380Z,100.00
2022-09-13T05:12:38.433Z,100.00
2022-09-13T05:15:48.736Z,100.00
2022-09-13T05:19:00.812Z,100.00
2022-09-13T05:22:07.443Z,100.00
2022-09-13T05:25:17.891Z,100.00
2022-09-13T05:28:30.122Z,100.00
2022-09-13T05:31:42.303Z,100.00
2022-09-13T05:34:53.663Z,100.00
2022-09-13T05:38:04.045Z,100.00
2022-09-13T05:41:14.366Z,100.00
2022-09-13T05:44:24.424Z,100.00
2022-09-13T05:47:34.245Z,100.00
2022-09-13T05:50:57.677Z,100.00
2022-09-13T05:54:08.573Z,100.00
2022-09-13T05:57:18.573Z,100.00
2022-09-13T06:00:29.086Z,100.00
2022-09-13T06:03:39.574Z,100.00
2022-09-13T06:06:51.094Z,100.00
2022-09-13T06:10:01.095Z,100.00
2022-09-13T06:13:11.221Z,100.00
2022-09-13T06:16:21.911Z,100.00
2022-09-13T06:19:32.612Z,100.00
2022-09-13T06:22:44.420Z,100.00
2022-09-13T06:26:01.395Z,100.00
2022-09-13T06:29:12.474Z,100.00
2022-09-13T06:32:22.539Z,100.00
2022-09-13T06:35:33.039Z,100.00
2022-09-13T06:38:45.950Z,100.00
2022-09-13T06:41:56.415Z,100.00
2022-09-13T06:45:07.924Z,100.00
2022-09-13T06:48:18.371Z,100.00
2022-09-13T06:51:29.701Z,100.00
2022-09-13T06:54:41.456Z,100.00
2022-09-13T06:57:51.986Z,100.00
2022-09-13T07:01:13.403Z,100.00
2022-09-13T07:04:23.621Z,100.00
2022-09-13T07:07:33.465Z,100.00
2022-09-13T07:10:44.722Z,100.00
2022-09-13T07:13:56.716Z,100.00
2022-09-13T07:17:06.998Z,100.00
2022-09-13T07:20:17.459Z,100.00
2022-09-13T07:23:27.436Z,100.00
2022-09-13T07:26:39.635Z,100.00
2022-09-13T07:29:50.319Z,100.00
2022-09-13T07:33:00.290Z,100.00
2022-09-13T07:36:11.763Z,100.00
2022-09-13T07:39:23.154Z,100.00
2022-09-13T07:42:35.127Z,100.00
2022-09-13T07:45:45.285Z,100.00
2022-09-13T07:48:56.950Z,100.00
2022-09-13T07:52:06.855Z,100.00
2022-09-13T07:55:17.121Z,100.00
2022-09-13T07:58:28.705Z,100.00
2022-09-13T08:01:41.103Z,100.00
2022-09-13T08:04:51.180Z,100.00
2022-09-13T08:08:01.025Z,100.00
2022-09-13T08:11:16.209Z,100.00
2022-09-13T08:14:27.800Z,100.00
2022-09-13T08:17:37.755Z,100.00
2022-09-13T08:20:48.109Z,100.00
2022-09-13T08:24:00.678Z,100.00
2022-09-13T08:27:10.885Z,100.00
2022-09-13T08:30:22.867Z,100.00
2022-09-13T08:33:33.472Z,100.00
2022-09-13T08:36:44.370Z,100.00
2022-09-13T08:39:54.614Z,100.00
2022-09-13T08:43:13.270Z,100.00
2022-09-13T08:46:27.529Z,100.00
2022-09-13T08:49:44.964Z,100.00
2022-09-13T08:53:17.384Z,100.00
2022-09-13T08:56:36.659Z,100.00
2022-09-13T08:59:55.777Z,100.00
2022-09-13T09:03:21.640Z,100.00
2022-09-13T09:06:31.730Z,100.00
2022-09-13T09:09:47.308Z,100.00
2022-09-13T09:13:00.835Z,100.00
2022-09-13T09:16:31.509Z,100.00
2022-09-13T09:19:46.139Z,99.52
2022-09-13T09:22:57.181Z,93.56
2022-09-13T09:26:17.022Z,87.73
2022-09-13T09:29:32.643Z,87.53
2022-09-13T09:33:16.973Z,86.47
2022-09-13T09:36:38.683Z,81.57
2022-09-13T09:39:51.079Z,81.75
2022-09-13T09:43:02.660Z,80.71
2022-09-13T09:46:17.798Z,78.71
2022-09-13T09:49:51.994Z,76.73
2022-09-13T09:53:08.270Z,73.18
2022-09-13T09:56:24.900Z,75.11
2022-09-13T09:59:36.075Z,74.04
2022-09-13T10:02:48.066Z,71.84
2022-09-13T10:06:06.705Z,73.11
2022-09-13T10:09:21.011Z,73.01
2022-09-13T10:12:35.258Z,72.15
2022-09-13T10:15:55.285Z,71.07
2022-09-13T10:19:25.174Z,70.65
2022-09-13T10:22:35.408Z,68.91
2022-09-13T10:25:57.525Z,68.52
2022-09-13T10:29:14.296Z,67.01
2022-09-13T10:32:25.551Z,64.62
2022-09-13T10:35:35.718Z,65.28
2022-09-13T10:38:59.169Z,65.10
2022-09-13T10:42:11.737Z,64.24
2022-09-13T10:45:24.498Z,61.45
2022-09-13T10:48:47.716Z,61.61
2022-09-13T10:51:58.194Z,60.48
2022-09-13T10:55:36.192Z,59.45
2022-09-13T10:58:47.656Z,59.53
2022-09-13T11:02:42.328Z,59.07
2022-09-13T11:06:01.667Z,59.77
2022-09-13T11:09:17.274Z,57.95
2022-09-13T11:12:35.636Z,57.95
2022-09-13T11:15:59.059Z,58.55
2022-09-13T11:19:36.774Z,59.99
2022-09-13T11:23:21.496Z,58.90
2022-09-13T11:26:44.242Z,59.30
2022-09-13T11:30:10.494Z,59.92
2022-09-13T11:33:37.300Z,56.98
2022-09-13T11:37:02.061Z,54.56
2022-09-13T11:40:29.624Z,54.50
2022-09-13T11:44:01.074Z,53.54
2022-09-13T11:47:17.328Z,53.83
2022-09-13T11:50:39.699Z,55.85
2022-09-13T11:54:04.160Z,55.76
2022-09-13T11:57:19.272Z,55.73
2022-09-13T12:00:34.293Z,54.93
2022-09-13T12:03:54.534Z,55.91
2022-09-13T12:07:11.721Z,56.51
2022-09-13T12:10:26.215Z,55.86
2022-09-13T12:13:44.827Z,55.27
2022-09-13T12:16:59.138Z,55.08
2022-09-13T12:20:18.298Z,54.91
2022-09-13T12:23:34.385Z,55.36
2022-09-13T12:26:50.568Z,54.95
2022-09-13T12:30:07.440Z,56.32
2022-09-13T12:33:17.961Z,56.19
2022-09-13T12:36:54.501Z,56.74
2022-09-13T12:40:33.388Z,57.90
2022-09-13T12:44:02.666Z,59.11
2022-09-13T12:47:29.883Z,58.85
2022-09-13T12:50:51.219Z,58.18
2022-09-13T12:54:34.056Z,58.40
2022-09-13T12:58:00.642Z,58.69
2022-09-13T13:01:16.115Z,59.92
2022-09-13T13:04:30.137Z,59.79
2022-09-13T13:07:43.709Z,60.78
2022-09-13T13:11:03.473Z,61.47
2022-09-13T13:14:45.097Z,62.45
2022-09-13T13:17:56.206Z,61.97
2022-09-13T13:21:36.516Z,62.46
2022-09-13T13:24:48.784Z,63.00
2022-09-13T13:27:59.257Z,59.62
2022-09-13T13:31:11.142Z,59.76
2022-09-13T13:34:36.697Z,60.49
2022-09-13T13:37:47.455Z,61.00
2022-09-13T13:41:10.890Z,61.46
2022-09-13T13:44:58.563Z,62.17
2022-09-13T13:48:13.990Z,63.16
2022-09-13T13:51:28.757Z,64.69
2022-09-13T13:55:00.949Z,67.68
2022-09-13T13:58:32.900Z,69.71
2022-09-13T14:01:47.749Z,70.63
2022-09-13T14:05:11.017Z,71.80
2022-09-13T14:08:34.469Z,71.82
2022-09-13T14:11:58.272Z,71.99
2022-09-13T14:15:32.643Z,70.44
2022-09-13T14:19:05.405Z,70.81
2022-09-13T14:22:20.648Z,70.93
2022-09-13T14:25:30.644Z,70.56
2022-09-13T14:28:41.897Z,69.90
2022-09-13T14:31:54.956Z,70.22
2022-09-13T14:35:27.158Z,69.96
2022-09-13T14:38:39.299Z,69.24
2022-09-13T14:41:50.280Z,70.66
2022-09-13T14:45:00.585Z,71.40
2022-09-13T14:48:18.224Z,71.39
2022-09-13T14:51:33.150Z,70.91
2022-09-13T14:54:48.535Z,70.17
2022-09-13T14:58:04.216Z,69.22
2022-09-13T15:01:17.037Z,68.40
2022-09-13T15:04:28.293Z,68.03
2022-09-13T15:07:40.827Z,68.52
2022-09-13T15:10:52.115Z,68.04
2022-09-13T15:14:04.373Z,68.16
2022-09-13T15:17:15.218Z,68.62
2022-09-13T15:20:27.163Z,65.87
2022-09-13T15:23:39.597Z,67.21
2022-09-13T15:27:03.047Z,66.15
2022-09-13T15:30:23.757Z,67.05
2022-09-13T15:33:36.001Z,66.54
2022-09-13T15:36:47.416Z,67.59
2022-09-13T15:40:13.014Z,67.97
2022-09-13T15:43:24.843Z,68.79
2022-09-13T15:46:44.670Z,68.81
2022-09-13T15:49:54.743Z,70.05
2022-09-13T15:53:12.586Z,70.62
2022-09-13T15:56:27.123Z,71.04
2022-09-13T15:59:38.713Z,70.41
2022-09-13T16:02:49.657Z,69.57
2022-09-13T16:06:00.799Z,68.97
2022-09-13T16:09:19.628Z,70.42
2022-09-13T16:12:30.135Z,70.41
2022-09-13T16:15:42.471Z,70.35
2022-09-13T16:18:52.806Z,69.29
2022-09-13T16:22:04.022Z,68.91
2022-09-13T16:25:18.618Z,67.08
2022-09-13T16:28:42.379Z,67.21
2022-09-13T16:31:54.333Z,67.58
2022-09-13T16:35:06.157Z,67.42
2022-09-13T16:38:16.739Z,67.32
2022-09-13T16:41:27.487Z,66.96
2022-09-13T16:44:37.511Z,67.56
2022-09-13T16:47:49.154Z,67.54
2022-09-13T16:51:03.623Z,68.15
2022-09-13T16:54:13.994Z,67.09
2022-09-13T16:57:24.898Z,68.06
2022-09-13T17:00:34.989Z,68.20
2022-09-13T17:03:49.141Z,69.71
2022-09-13T17:07:01.977Z,69.63
2022-09-13T17:10:12.810Z,71.14
2022-09-13T17:13:24.237Z,71.66
2022-09-13T17:16:37.147Z,72.23
2022-09-13T17:19:48.808Z,72.84
2022-09-13T17:23:00.367Z,74.43
2022-09-13T17:26:11.277Z,74.78
2022-09-13T17:29:21.309Z,75.95
2022-09-13T17:32:31.383Z,76.91
2022-09-13T17:35:43.579Z,77.46
2022-09-13T17:38:57.220Z,77.61
2022-09-13T17:42:07.870Z,78.97
2022-09-13T17:45:18.371Z,79.32
2022-09-13T17:48:28.515Z,80.37
2022-09-13T17:51:40.222Z,80.68
2022-09-13T17:54:50.411Z,81.78
2022-09-13T17:58:00.398Z,81.42
2022-09-13T18:01:11.255Z,80.65
2022-09-13T18:04:23.276Z,81.77
2022-09-13T18:07:35.044Z,81.24
2022-09-13T18:11:04.113Z,81.96
2022-09-13T18:14:16.887Z,82.36
2022-09-13T18:17:27.319Z,82.29
2022-09-13T18:20:40.691Z,82.18
2022-09-13T18:23:54.693Z,82.48
2022-09-13T18:27:06.283Z,82.46
2022-09-13T18:30:16.558Z,82.66
2022-09-13T18:33:28.297Z,82.56
2022-09-13T18:36:38.947Z,82.36
2022-09-13T18:39:51.271Z,82.36
2022-09-13T18:43:01.415Z,82.45
2022-09-13T18:46:14.180Z,82.08
2022-09-13T18:49:24.754Z,82.49
2022-09-13T18:52:34.846Z,81.51
2022-09-13T18:55:46.316Z,81.44
2022-09-13T18:58:59.728Z,81.77
2022-09-13T19:02:10.930Z,81.72
2022-09-13T19:05:21.358Z,81.71
2022-09-13T19:08:31.534Z,80.87
2022-09-13T19:11:47.293Z,81.57
2022-09-13T19:14:59.231Z,82.08
2022-09-13T19:18:10.129Z,82.36
2022-09-13T19:21:21.680Z,81.11
2022-09-13T19:24:31.951Z,81.71
2022-09-13T19:27:43.289Z,82.13
2022-09-13T19:30:54.064Z,81.54
2022-09-13T19:34:06.276Z,82.23
2022-09-13T19:37:16.539Z,82.37
2022-09-13T19:40:26.736Z,82.45
2022-09-13T19:43:39.679Z,82.47
2022-09-13T19:47:00.958Z,83.05
2022-09-13T19:50:20.097Z,84.00
2022-09-13T19:53:53.456Z,84.65
2022-09-13T19:57:01.405Z,84.58
2022-09-13T20:00:14.278Z,84.26
2022-09-13T20:03:24.348Z,84.08
2022-09-13T20:06:19.446Z,83.83
2022-09-13T20:09:29.840Z,84.48
2022-09-13T20:12:40.475Z,84.37
2022-09-13T20:15:52.474Z,84.89
2022-09-13T20:19:13.744Z,85.55
2022-09-13T20:22:33.676Z,85.19
2022-09-13T20:25:43.735Z,85.81
2022-09-13T20:28:48.342Z,86.14
2022-09-13T20:32:02.136Z,86.94
2022-09-13T20:35:12.824Z,87.30
2022-09-13T20:38:24.187Z,87.36
2022-09-13T20:41:34.735Z,87.89
2022-09-13T20:44:46.049Z,87.85
2022-09-13T20:47:57.838Z,87.98
2022-09-13T20:51:11.097Z,88.98
2022-09-13T20:54:21.171Z,88.86
2022-09-13T20:57:31.506Z,89.79
2022-09-13T21:00:42.070Z,89.77
2022-09-13T21:03:55.271Z,90.16
2022-09-13T21:07:23.221Z,90.43
2022-09-13T21:10:33.744Z,91.58
2022-09-13T21:13:46.720Z,92.30
2022-09-13T21:16:57.448Z,92.29
2022-09-13T21:20:09.570Z,93.34
2022-09-13T21:23:19.719Z,93.98
2022-09-13T21:26:30.451Z,94.37
2022-09-13T21:29:40.619Z,95.66
2022-09-13T21:32:50.735Z,96.29
2022-09-13T21:36:05.078Z,97.34
2022-09-13T21:39:16.210Z,98.19
2022-09-13T21:42:26.464Z,98.78
2022-09-13T21:45:36.399Z,99.30
2022-09-13T21:48:47.935Z,99.75
2022-09-13T21:51:59.495Z,100.00
2022-09-13T21:55:10.306Z,100.00
2022-09-13T21:58:20.634Z,100.00
2022-09-13T22:01:32.481Z,100.00
2022-09-13T22:04:43.423Z,100.00
2022-09-13T22:07:54.917Z,100.00
2022-09-13T22:11:07.671Z,100.00
2022-09-13T22:14:19.884Z,100.00
2022-09-13T22:17:30.666Z,100.00
2022-09-13T22:20:41.757Z,100.00
2022-09-13T22:23:53.883Z,100.00
2022-09-13T22:27:04.072Z,100.00
2022-09-13T22:30:15.011Z,100.00
2022-09-13T22:33:25.501Z,100.00
2022-09-13T22:36:36.014Z,100.00
2022-09-13T22:39:48.198Z,100.00
2022-09-13T22:42:58.866Z,100.00
2022-09-13T22:46:11.348Z,100.00
2022-09-13T22:49:21.287Z,100.00
2022-09-13T22:52:32.276Z,100.00
2022-09-13T22:55:43.715Z,100.00
2022-09-13T22:58:55.431Z,100.00
2022-09-13T23:02:06.638Z,100.00
2022-09-13T23:05:18.227Z,100.00
2022-09-13T23:08:29.288Z,100.00
2022-09-13T23:11:41.972Z,100.00
2022-09-13T23:14:52.339Z,100.00
2022-09-13T23:18:02.498Z,100.00
2022-09-13T23:21:13.319Z,100.00
2022-09-13T23:24:24.269Z,100.00
2022-09-13T23:27:35.823Z,100.00
2022-09-13T23:30:46.252Z,100.00
2022-09-13T23:33:58.215Z,100.00
2022-09-13T23:37:09.179Z,100.00
2022-09-13T23:40:19.865Z,100.00
2022-09-13T23:43:31.793Z,100.00
2022-09-13T23:46:42.594Z,100.00
2022-09-13T23:49:52.907Z,100.00
2022-09-13T23:53:02.802Z,100.00
2022-09-13T23:56:14.179Z,100.00
2022-09-13T23:59:25.855Z,100.00
